sensor_id;sensor_type;location;lat;lon;timestamp;P1;durP1;ratioP1;P2;durP2;ratioP2
22449;SDS011;11392;57.390;-2.468;2023-02-11T00:00:55;0.15;;;0.13;;
22449;SDS011;11392;57.390;-2.468;2023-02-11T00:03:22;0.10;;;0.10;;
22449;SDS011;11392;57.390;-2.468;2023-02-11T00:05:59;0.10;;;0.10;;
22449;SDS011;11392;57.390;-2.468;2023-02-11T00:08:28;0.05;;;0.05;;
22449;SDS011;11392;57.390;-2.468;2023-02-11T00:10:55;0.10;;;0.10;;
22449;SDS011;11392;57.390;-2.468;2023-02-11T00:13:23;0.10;;;0.10;;
22449;SDS011;11392;57.390;-2.468;2023-02-11T00:15:51;0.03;;;0.03;;
22449;SDS011;11392;57.390;-2.468;2023-02-11T00:18:19;0.10;;;0.10;;
22449;SDS011;11392;57.390;-2.468;2023-02-11T00:20:46;0.20;;;0.08;;
22449;SDS011;11392;57.390;-2.468;2023-02-11T00:23:14;0.10;;;0.10;;
22449;SDS011;11392;57.390;-2.468;2023-02-11T00:25:41;0.10;;;0.10;;
22449;SDS011;11392;57.390;-2.468;2023-02-11T00:28:10;0.10;;;0.10;;
22449;SDS011;11392;57.390;-2.468;2023-02-11T00:30:38;0.10;;;0.10;;
22449;SDS011;11392;57.390;-2.468;2023-02-11T00:33:05;0.10;;;0.10;;
22449;SDS011;11392;57.390;-2.468;2023-02-11T00:35:32;0.10;;;0.10;;
22449;SDS011;11392;57.390;-2.468;2023-02-11T00:38:01;0.00;;;0.00;;
22449;SDS011;11392;57.390;-2.468;2023-02-11T00:40:28;0.03;;;0.03;;
22449;SDS011;11392;57.390;-2.468;2023-02-11T00:42:55;0.00;;;0.00;;
22449;SDS011;11392;57.390;-2.468;2023-02-11T00:45:22;0.03;;;0.03;;
22449;SDS011;11392;57.390;-2.468;2023-02-11T00:47:49;0.30;;;0.17;;
22449;SDS011;11392;57.390;-2.468;2023-02-11T00:50:16;0.00;;;0.00;;
22449;SDS011;11392;57.390;-2.468;2023-02-11T00:52:43;0.10;;;0.10;;
22449;SDS011;11392;57.390;-2.468;2023-02-11T00:55:10;0.10;;;0.10;;
22449;SDS011;11392;57.390;-2.468;2023-02-11T00:57:37;0.17;;;0.15;;
22449;SDS011;11392;57.390;-2.468;2023-02-11T01:00:05;0.10;;;0.10;;
22449;SDS011;11392;57.390;-2.468;2023-02-11T01:02:32;0.13;;;0.10;;
22449;SDS011;11392;57.390;-2.468;2023-02-11T01:04:59;0.05;;;0.05;;
22449;SDS011;11392;57.390;-2.468;2023-02-11T01:07:27;0.10;;;0.10;;
22449;SDS011;11392;57.390;-2.468;2023-02-11T01:09:54;0.20;;;0.20;;
22449;SDS011;11392;57.390;-2.468;2023-02-11T01:12:22;0.20;;;0.20;;
22449;SDS011;11392;57.390;-2.468;2023-02-11T01:14:49;0.10;;;0.10;;
22449;SDS011;11392;57.390;-2.468;2023-02-11T01:17:16;1.75;;;0.95;;
22449;SDS011;11392;57.390;-2.468;2023-02-11T01:19:43;0.45;;;0.20;;
22449;SDS011;11392;57.390;-2.468;2023-02-11T01:22:10;0.10;;;0.10;;
22449;SDS011;11392;57.390;-2.468;2023-02-11T01:24:37;0.10;;;0.10;;
22449;SDS011;11392;57.390;-2.468;2023-02-11T01:27:04;0.20;;;0.20;;
22449;SDS011;11392;57.390;-2.468;2023-02-11T01:29:31;0.10;;;0.10;;
22449;SDS011;11392;57.390;-2.468;2023-02-11T01:31:58;0.30;;;0.20;;
22449;SDS011;11392;57.390;-2.468;2023-02-11T01:34:26;0.20;;;0.20;;
22449;SDS011;11392;57.390;-2.468;2023-02-11T01:37:02;0.32;;;0.17;;
22449;SDS011;11392;57.390;-2.468;2023-02-11T01:39:31;0.30;;;0.20;;
22449;SDS011;11392;57.390;-2.468;2023-02-11T01:41:59;0.20;;;0.20;;
22449;SDS011;11392;57.390;-2.468;2023-02-11T01:44:31;0.20;;;0.20;;
22449;SDS011;11392;57.390;-2.468;2023-02-11T01:47:03;0.10;;;0.10;;
22449;SDS011;11392;57.390;-2.468;2023-02-11T01:49:32;0.10;;;0.10;;
22449;SDS011;11392;57.390;-2.468;2023-02-11T01:54:41;0.10;;;0.10;;
22449;SDS011;11392;57.390;-2.468;2023-02-11T01:57:31;0.22;;;0.20;;
22449;SDS011;11392;57.390;-2.468;2023-02-11T02:00:13;0.20;;;0.17;;
22449;SDS011;11392;57.390;-2.468;2023-02-11T02:05:50;0.08;;;0.08;;
22449;SDS011;11392;57.390;-2.468;2023-02-11T02:08:30;0.73;;;0.20;;
22449;SDS011;11392;57.390;-2.468;2023-02-11T02:11:02;0.50;;;0.10;;
22449;SDS011;11392;57.390;-2.468;2023-02-11T02:13:30;0.00;;;0.00;;
22449;SDS011;11392;57.390;-2.468;2023-02-11T02:16:00;0.00;;;0.00;;
22449;SDS011;11392;57.390;-2.468;2023-02-11T02:21:28;0.00;;;0.00;;
22449;SDS011;11392;57.390;-2.468;2023-02-11T02:24:26;0.50;;;0.10;;
22449;SDS011;11392;57.390;-2.468;2023-02-11T02:30:19;1.02;;;0.13;;
22449;SDS011;11392;57.390;-2.468;2023-02-11T02:38:28;0.00;;;0.00;;
22449;SDS011;11392;57.390;-2.468;2023-02-11T02:41:06;0.10;;;0.10;;
22449;SDS011;11392;57.390;-2.468;2023-02-11T02:43:37;0.10;;;0.10;;
22449;SDS011;11392;57.390;-2.468;2023-02-11T02:46:26;0.10;;;0.10;;
22449;SDS011;11392;57.390;-2.468;2023-02-11T02:48:55;0.00;;;0.00;;
22449;SDS011;11392;57.390;-2.468;2023-02-11T02:57:00;0.10;;;0.10;;
22449;SDS011;11392;57.390;-2.468;2023-02-11T03:07:57;0.10;;;0.10;;
22449;SDS011;11392;57.390;-2.468;2023-02-11T03:10:35;0.05;;;0.05;;
22449;SDS011;11392;57.390;-2.468;2023-02-11T03:13:05;0.20;;;0.10;;
22449;SDS011;11392;57.390;-2.468;2023-02-11T03:15:36;0.15;;;0.10;;
22449;SDS011;11392;57.390;-2.468;2023-02-11T03:18:07;0.05;;;0.05;;
22449;SDS011;11392;57.390;-2.468;2023-02-11T03:20:37;0.00;;;0.00;;
22449;SDS011;11392;57.390;-2.468;2023-02-11T03:25:49;0.00;;;0.00;;
22449;SDS011;11392;57.390;-2.468;2023-02-11T03:30:58;0.82;;;0.15;;
22449;SDS011;11392;57.390;-2.468;2023-02-11T03:33:51;0.10;;;0.10;;
22449;SDS011;11392;57.390;-2.468;2023-02-11T03:36:38;0.10;;;0.10;;
22449;SDS011;11392;57.390;-2.468;2023-02-11T03:39:15;0.10;;;0.10;;
22449;SDS011;11392;57.390;-2.468;2023-02-11T03:41:46;0.47;;;0.10;;
22449;SDS011;11392;57.390;-2.468;2023-02-11T03:44:15;0.10;;;0.10;;
22449;SDS011;11392;57.390;-2.468;2023-02-11T03:46:43;0.20;;;0.10;;
22449;SDS011;11392;57.390;-2.468;2023-02-11T03:49:16;1.10;;;0.20;;
22449;SDS011;11392;57.390;-2.468;2023-02-11T03:51:46;0.45;;;0.32;;
22449;SDS011;11392;57.390;-2.468;2023-02-11T03:54:17;0.20;;;0.20;;
22449;SDS011;11392;57.390;-2.468;2023-02-11T03:56:53;0.40;;;0.20;;
22449;SDS011;11392;57.390;-2.468;2023-02-11T03:59:22;0.10;;;0.10;;
22449;SDS011;11392;57.390;-2.468;2023-02-11T04:01:49;0.60;;;0.15;;
22449;SDS011;11392;57.390;-2.468;2023-02-11T04:04:17;1.05;;;0.10;;
22449;SDS011;11392;57.390;-2.468;2023-02-11T04:06:44;0.10;;;0.10;;
22449;SDS011;11392;57.390;-2.468;2023-02-11T04:09:11;0.20;;;0.10;;
22449;SDS011;11392;57.390;-2.468;2023-02-11T04:11:38;0.10;;;0.10;;
22449;SDS011;11392;57.390;-2.468;2023-02-11T04:14:05;0.05;;;0.05;;
22449;SDS011;11392;57.390;-2.468;2023-02-11T04:16:32;0.10;;;0.10;;
22449;SDS011;11392;57.390;-2.468;2023-02-11T04:18:59;0.10;;;0.10;;
22449;SDS011;11392;57.390;-2.468;2023-02-11T04:21:27;0.13;;;0.10;;
22449;SDS011;11392;57.390;-2.468;2023-02-11T04:23:54;0.22;;;0.17;;
22449;SDS011;11392;57.390;-2.468;2023-02-11T04:26:21;0.10;;;0.10;;
22449;SDS011;11392;57.390;-2.468;2023-02-11T04:28:48;1.20;;;0.30;;
22449;SDS011;11392;57.390;-2.468;2023-02-11T04:31:15;0.52;;;0.20;;
22449;SDS011;11392;57.390;-2.468;2023-02-11T04:33:42;0.25;;;0.22;;
22449;SDS011;11392;57.390;-2.468;2023-02-11T04:36:09;0.40;;;0.20;;
22449;SDS011;11392;57.390;-2.468;2023-02-11T04:38:36;0.20;;;0.20;;
22449;SDS011;11392;57.390;-2.468;2023-02-11T04:41:03;0.20;;;0.20;;
22449;SDS011;11392;57.390;-2.468;2023-02-11T04:43:30;1.17;;;0.35;;
22449;SDS011;11392;57.390;-2.468;2023-02-11T04:45:57;1.67;;;0.50;;
22449;SDS011;11392;57.390;-2.468;2023-02-11T04:48:25;1.23;;;0.40;;
22449;SDS011;11392;57.390;-2.468;2023-02-11T04:50:52;2.17;;;0.57;;
22449;SDS011;11392;57.390;-2.468;2023-02-11T04:53:19;0.88;;;0.43;;
22449;SDS011;11392;57.390;-2.468;2023-02-11T04:55:49;4.15;;;0.63;;
22449;SDS011;11392;57.390;-2.468;2023-02-11T04:58:17;2.17;;;0.65;;
22449;SDS011;11392;57.390;-2.468;2023-02-11T05:00:45;5.38;;;0.70;;
22449;SDS011;11392;57.390;-2.468;2023-02-11T05:03:13;1.40;;;0.50;;
22449;SDS011;11392;57.390;-2.468;2023-02-11T05:05:41;0.50;;;0.40;;
22449;SDS011;11392;57.390;-2.468;2023-02-11T05:08:09;0.55;;;0.30;;
22449;SDS011;11392;57.390;-2.468;2023-02-11T05:10:36;3.05;;;1.00;;
22449;SDS011;11392;57.390;-2.468;2023-02-11T05:13:04;3.42;;;0.70;;
22449;SDS011;11392;57.390;-2.468;2023-02-11T05:15:31;2.30;;;0.35;;
22449;SDS011;11392;57.390;-2.468;2023-02-11T05:17:58;1.20;;;0.55;;
22449;SDS011;11392;57.390;-2.468;2023-02-11T05:20:25;2.25;;;0.40;;
22449;SDS011;11392;57.390;-2.468;2023-02-11T05:22:52;0.95;;;0.60;;
22449;SDS011;11392;57.390;-2.468;2023-02-11T05:25:18;1.30;;;0.50;;
22449;SDS011;11392;57.390;-2.468;2023-02-11T05:27:45;1.42;;;0.40;;
22449;SDS011;11392;57.390;-2.468;2023-02-11T05:30:12;1.02;;;0.32;;
22449;SDS011;11392;57.390;-2.468;2023-02-11T05:32:40;0.52;;;0.40;;
22449;SDS011;11392;57.390;-2.468;2023-02-11T05:35:07;1.15;;;0.50;;
22449;SDS011;11392;57.390;-2.468;2023-02-11T05:37:34;1.02;;;0.43;;
22449;SDS011;11392;57.390;-2.468;2023-02-11T05:40:02;2.08;;;0.45;;
22449;SDS011;11392;57.390;-2.468;2023-02-11T05:42:29;1.15;;;0.40;;
22449;SDS011;11392;57.390;-2.468;2023-02-11T05:44:56;0.85;;;0.20;;
22449;SDS011;11392;57.390;-2.468;2023-02-11T05:47:23;0.40;;;0.40;;
22449;SDS011;11392;57.390;-2.468;2023-02-11T05:49:50;1.05;;;0.35;;
22449;SDS011;11392;57.390;-2.468;2023-02-11T05:52:19;0.45;;;0.28;;
22449;SDS011;11392;57.390;-2.468;2023-02-11T05:54:47;0.40;;;0.30;;
22449;SDS011;11392;57.390;-2.468;2023-02-11T05:57:14;0.20;;;0.20;;
22449;SDS011;11392;57.390;-2.468;2023-02-11T05:59:41;0.70;;;0.30;;
22449;SDS011;11392;57.390;-2.468;2023-02-11T06:02:09;1.13;;;0.30;;
22449;SDS011;11392;57.390;-2.468;2023-02-11T06:04:36;2.28;;;0.40;;
22449;SDS011;11392;57.390;-2.468;2023-02-11T06:07:03;0.38;;;0.38;;
22449;SDS011;11392;57.390;-2.468;2023-02-11T06:09:30;2.35;;;0.70;;
22449;SDS011;11392;57.390;-2.468;2023-02-11T06:11:57;1.45;;;0.47;;
22449;SDS011;11392;57.390;-2.468;2023-02-11T06:14:24;0.93;;;0.40;;
22449;SDS011;11392;57.390;-2.468;2023-02-11T06:16:51;0.30;;;0.30;;
22449;SDS011;11392;57.390;-2.468;2023-02-11T06:19:18;0.95;;;0.35;;
22449;SDS011;11392;57.390;-2.468;2023-02-11T06:21:45;0.60;;;0.20;;
22449;SDS011;11392;57.390;-2.468;2023-02-11T06:24:12;0.98;;;0.70;;
22449;SDS011;11392;57.390;-2.468;2023-02-11T06:26:39;0.40;;;0.20;;
22449;SDS011;11392;57.390;-2.468;2023-02-11T06:29:06;0.20;;;0.20;;
22449;SDS011;11392;57.390;-2.468;2023-02-11T06:31:33;0.25;;;0.20;;
22449;SDS011;11392;57.390;-2.468;2023-02-11T06:34:01;0.15;;;0.13;;
22449;SDS011;11392;57.390;-2.468;2023-02-11T06:36:29;0.82;;;0.20;;
22449;SDS011;11392;57.390;-2.468;2023-02-11T06:38:56;0.55;;;0.30;;
22449;SDS011;11392;57.390;-2.468;2023-02-11T06:41:23;0.60;;;0.30;;
22449;SDS011;11392;57.390;-2.468;2023-02-11T06:43:51;0.38;;;0.30;;
22449;SDS011;11392;57.390;-2.468;2023-02-11T06:46:18;2.83;;;0.40;;
22449;SDS011;11392;57.390;-2.468;2023-02-11T06:48:45;0.85;;;0.30;;
22449;SDS011;11392;57.390;-2.468;2023-02-11T06:51:13;0.93;;;0.50;;
22449;SDS011;11392;57.390;-2.468;2023-02-11T06:53:42;0.30;;;0.25;;
22449;SDS011;11392;57.390;-2.468;2023-02-11T06:56:13;0.40;;;0.40;;
22449;SDS011;11392;57.390;-2.468;2023-02-11T06:58:41;1.38;;;0.40;;
22449;SDS011;11392;57.390;-2.468;2023-02-11T07:01:10;0.45;;;0.30;;
22449;SDS011;11392;57.390;-2.468;2023-02-11T07:03:40;1.65;;;0.30;;
22449;SDS011;11392;57.390;-2.468;2023-02-11T07:06:10;1.25;;;0.35;;
22449;SDS011;11392;57.390;-2.468;2023-02-11T07:08:39;0.43;;;0.40;;
22449;SDS011;11392;57.390;-2.468;2023-02-11T07:11:11;1.00;;;0.45;;
22449;SDS011;11392;57.390;-2.468;2023-02-11T07:13:43;0.68;;;0.43;;
22449;SDS011;11392;57.390;-2.468;2023-02-11T07:16:12;0.98;;;0.35;;
22449;SDS011;11392;57.390;-2.468;2023-02-11T07:18:40;1.05;;;0.40;;
22449;SDS011;11392;57.390;-2.468;2023-02-11T07:21:09;1.42;;;0.43;;
22449;SDS011;11392;57.390;-2.468;2023-02-11T07:23:37;1.95;;;0.50;;
22449;SDS011;11392;57.390;-2.468;2023-02-11T07:26:06;0.43;;;0.30;;
22449;SDS011;11392;57.390;-2.468;2023-02-11T07:28:36;1.45;;;0.40;;
22449;SDS011;11392;57.390;-2.468;2023-02-11T07:31:08;0.47;;;0.30;;
22449;SDS011;11392;57.390;-2.468;2023-02-11T07:33:37;1.17;;;0.30;;
22449;SDS011;11392;57.390;-2.468;2023-02-11T07:36:05;1.23;;;0.95;;
22449;SDS011;11392;57.390;-2.468;2023-02-11T07:38:33;4.05;;;0.63;;
22449;SDS011;11392;57.390;-2.468;2023-02-11T07:41:02;1.92;;;0.30;;
22449;SDS011;11392;57.390;-2.468;2023-02-11T07:43:30;0.55;;;0.30;;
22449;SDS011;11392;57.390;-2.468;2023-02-11T07:45:58;0.75;;;0.40;;
22449;SDS011;11392;57.390;-2.468;2023-02-11T07:48:28;1.80;;;0.40;;
22449;SDS011;11392;57.390;-2.468;2023-02-11T07:50:56;0.88;;;0.40;;
22449;SDS011;11392;57.390;-2.468;2023-02-11T07:53:50;1.45;;;0.50;;
22449;SDS011;11392;57.390;-2.468;2023-02-11T07:56:18;0.80;;;0.30;;
22449;SDS011;11392;57.390;-2.468;2023-02-11T07:58:46;0.45;;;0.30;;
22449;SDS011;11392;57.390;-2.468;2023-02-11T08:01:15;1.80;;;0.60;;
22449;SDS011;11392;57.390;-2.468;2023-02-11T08:03:44;1.25;;;0.50;;
22449;SDS011;11392;57.390;-2.468;2023-02-11T08:06:12;3.60;;;0.52;;
22449;SDS011;11392;57.390;-2.468;2023-02-11T08:08:42;0.28;;;0.28;;
22449;SDS011;11392;57.390;-2.468;2023-02-11T08:11:10;0.45;;;0.30;;
22449;SDS011;11392;57.390;-2.468;2023-02-11T08:13:38;0.98;;;0.50;;
22449;SDS011;11392;57.390;-2.468;2023-02-11T08:16:06;0.25;;;0.25;;
22449;SDS011;11392;57.390;-2.468;2023-02-11T08:18:34;0.43;;;0.32;;
22449;SDS011;11392;57.390;-2.468;2023-02-11T08:21:05;0.35;;;0.30;;
22449;SDS011;11392;57.390;-2.468;2023-02-11T08:23:35;0.70;;;0.40;;
22449;SDS011;11392;57.390;-2.468;2023-02-11T08:26:04;0.85;;;0.40;;
22449;SDS011;11392;57.390;-2.468;2023-02-11T08:28:34;1.30;;;0.30;;
22449;SDS011;11392;57.390;-2.468;2023-02-11T08:31:13;0.30;;;0.30;;
22449;SDS011;11392;57.390;-2.468;2023-02-11T08:33:45;0.70;;;0.43;;
22449;SDS011;11392;57.390;-2.468;2023-02-11T08:36:22;0.43;;;0.30;;
22449;SDS011;11392;57.390;-2.468;2023-02-11T08:38:52;0.47;;;0.30;;
22449;SDS011;11392;57.390;-2.468;2023-02-11T08:41:43;1.00;;;0.30;;
22449;SDS011;11392;57.390;-2.468;2023-02-11T08:44:10;0.30;;;0.30;;
22449;SDS011;11392;57.390;-2.468;2023-02-11T08:46:38;0.70;;;0.30;;
22449;SDS011;11392;57.390;-2.468;2023-02-11T08:49:05;0.95;;;0.30;;
22449;SDS011;11392;57.390;-2.468;2023-02-11T08:51:32;1.45;;;0.40;;
22449;SDS011;11392;57.390;-2.468;2023-02-11T08:53:59;0.47;;;0.30;;
22449;SDS011;11392;57.390;-2.468;2023-02-11T08:56:26;0.20;;;0.20;;
22449;SDS011;11392;57.390;-2.468;2023-02-11T08:58:54;0.70;;;0.25;;
22449;SDS011;11392;57.390;-2.468;2023-02-11T09:01:23;1.23;;;0.15;;
22449;SDS011;11392;57.390;-2.468;2023-02-11T09:03:54;0.68;;;0.20;;
22449;SDS011;11392;57.390;-2.468;2023-02-11T09:06:21;0.52;;;0.20;;
22449;SDS011;11392;57.390;-2.468;2023-02-11T09:08:50;0.73;;;0.30;;
22449;SDS011;11392;57.390;-2.468;2023-02-11T09:11:20;0.22;;;0.22;;
22449;SDS011;11392;57.390;-2.468;2023-02-11T09:13:51;0.85;;;0.30;;
22449;SDS011;11392;57.390;-2.468;2023-02-11T09:16:37;0.60;;;0.60;;
22449;SDS011;11392;57.390;-2.468;2023-02-11T09:19:04;1.00;;;0.70;;
22449;SDS011;11392;57.390;-2.468;2023-02-11T09:21:31;0.82;;;0.80;;
22449;SDS011;11392;57.390;-2.468;2023-02-11T09:23:59;0.70;;;0.70;;
22449;SDS011;11392;57.390;-2.468;2023-02-11T09:26:31;1.08;;;0.95;;
22449;SDS011;11392;57.390;-2.468;2023-02-11T09:28:59;1.75;;;1.50;;
22449;SDS011;11392;57.390;-2.468;2023-02-11T09:31:27;0.88;;;0.80;;
22449;SDS011;11392;57.390;-2.468;2023-02-11T09:33:57;1.00;;;0.75;;
22449;SDS011;11392;57.390;-2.468;2023-02-11T09:36:27;1.90;;;0.80;;
22449;SDS011;11392;57.390;-2.468;2023-02-11T09:38:57;2.35;;;0.95;;
22449;SDS011;11392;57.390;-2.468;2023-02-11T09:44:31;1.20;;;0.60;;
22449;SDS011;11392;57.390;-2.468;2023-02-11T09:47:00;0.85;;;0.68;;
22449;SDS011;11392;57.390;-2.468;2023-02-11T09:49:33;0.50;;;0.50;;
22449;SDS011;11392;57.390;-2.468;2023-02-11T09:52:23;0.47;;;0.47;;
22449;SDS011;11392;57.390;-2.468;2023-02-11T09:55:00;0.52;;;0.40;;
22449;SDS011;11392;57.390;-2.468;2023-02-11T09:57:31;0.50;;;0.50;;
22449;SDS011;11392;57.390;-2.468;2023-02-11T10:00:14;0.40;;;0.40;;
22449;SDS011;11392;57.390;-2.468;2023-02-11T10:06:09;0.50;;;0.35;;
22449;SDS011;11392;57.390;-2.468;2023-02-11T10:24:55;1.88;;;0.20;;
22449;SDS011;11392;57.390;-2.468;2023-02-11T10:27:32;0.50;;;0.30;;
22449;SDS011;11392;57.390;-2.468;2023-02-11T10:30:11;0.20;;;0.20;;
22449;SDS011;11392;57.390;-2.468;2023-02-11T10:33:05;1.17;;;0.20;;
22449;SDS011;11392;57.390;-2.468;2023-02-11T10:35:37;0.10;;;0.10;;
22449;SDS011;11392;57.390;-2.468;2023-02-11T10:38:04;0.25;;;0.20;;
22449;SDS011;11392;57.390;-2.468;2023-02-11T10:40:32;0.25;;;0.10;;
22449;SDS011;11392;57.390;-2.468;2023-02-11T10:43:01;0.77;;;0.20;;
22449;SDS011;11392;57.390;-2.468;2023-02-11T10:48:00;0.52;;;0.10;;
22449;SDS011;11392;57.390;-2.468;2023-02-11T10:51:05;0.20;;;0.10;;
22449;SDS011;11392;57.390;-2.468;2023-02-11T10:53:40;0.20;;;0.00;;
22449;SDS011;11392;57.390;-2.468;2023-02-11T10:56:09;0.45;;;0.40;;
22449;SDS011;11392;57.390;-2.468;2023-02-11T10:59:01;0.70;;;0.10;;
22449;SDS011;11392;57.390;-2.468;2023-02-11T11:09:44;1.33;;;0.30;;
22449;SDS011;11392;57.390;-2.468;2023-02-11T11:12:27;0.10;;;0.10;;
22449;SDS011;11392;57.390;-2.468;2023-02-11T11:15:22;0.30;;;0.30;;
22449;SDS011;11392;57.390;-2.468;2023-02-11T11:17:49;0.40;;;0.10;;
22449;SDS011;11392;57.390;-2.468;2023-02-11T11:21:00;0.10;;;0.10;;
22449;SDS011;11392;57.390;-2.468;2023-02-11T11:23:31;0.32;;;0.20;;
22449;SDS011;11392;57.390;-2.468;2023-02-11T11:28:39;2.65;;;1.48;;
22449;SDS011;11392;57.390;-2.468;2023-02-11T11:31:20;2.05;;;0.90;;
22449;SDS011;11392;57.390;-2.468;2023-02-11T11:34:00;1.80;;;1.10;;
22449;SDS011;11392;57.390;-2.468;2023-02-11T11:36:44;0.98;;;0.70;;
22449;SDS011;11392;57.390;-2.468;2023-02-11T11:39:19;3.10;;;1.50;;
22449;SDS011;11392;57.390;-2.468;2023-02-11T11:41:59;0.65;;;0.40;;
22449;SDS011;11392;57.390;-2.468;2023-02-11T11:44:32;0.52;;;0.45;;
22449;SDS011;11392;57.390;-2.468;2023-02-11T11:53:02;0.10;;;0.10;;
22449;SDS011;11392;57.390;-2.468;2023-02-11T11:58:14;0.10;;;0.10;;
22449;SDS011;11392;57.390;-2.468;2023-02-11T12:10:09;0.65;;;0.10;;
22449;SDS011;11392;57.390;-2.468;2023-02-11T12:29:00;0.00;;;0.00;;
22449;SDS011;11392;57.390;-2.468;2023-02-11T12:32:03;0.30;;;0.10;;
22449;SDS011;11392;57.390;-2.468;2023-02-11T12:40:01;0.10;;;0.10;;
22449;SDS011;11392;57.390;-2.468;2023-02-11T12:42:58;0.00;;;0.00;;
22449;SDS011;11392;57.390;-2.468;2023-02-11T12:49:03;0.38;;;0.38;;
22449;SDS011;11392;57.390;-2.468;2023-02-11T12:51:36;0.40;;;0.38;;
22449;SDS011;11392;57.390;-2.468;2023-02-11T12:54:30;0.40;;;0.40;;
22449;SDS011;11392;57.390;-2.468;2023-02-11T12:57:06;0.35;;;0.35;;
22449;SDS011;11392;57.390;-2.468;2023-02-11T13:00:03;0.82;;;0.20;;
22449;SDS011;11392;57.390;-2.468;2023-02-11T13:05:29;0.25;;;0.10;;
22449;SDS011;11392;57.390;-2.468;2023-02-11T13:11:02;0.08;;;0.08;;
22449;SDS011;11392;57.390;-2.468;2023-02-11T13:16:19;0.00;;;0.00;;
22449;SDS011;11392;57.390;-2.468;2023-02-11T13:24:43;0.00;;;0.00;;
22449;SDS011;11392;57.390;-2.468;2023-02-11T13:27:22;0.08;;;0.00;;
22449;SDS011;11392;57.390;-2.468;2023-02-11T13:32:21;0.52;;;0.10;;
22449;SDS011;11392;57.390;-2.468;2023-02-11T13:37:36;0.17;;;0.17;;
22449;SDS011;11392;57.390;-2.468;2023-02-11T13:40:06;0.35;;;0.30;;
22449;SDS011;11392;57.390;-2.468;2023-02-11T13:42:51;0.10;;;0.10;;
22449;SDS011;11392;57.390;-2.468;2023-02-11T13:45:31;0.10;;;0.10;;
22449;SDS011;11392;57.390;-2.468;2023-02-11T13:48:04;0.00;;;0.00;;
22449;SDS011;11392;57.390;-2.468;2023-02-11T13:50:46;0.00;;;0.00;;
22449;SDS011;11392;57.390;-2.468;2023-02-11T13:53:15;0.17;;;0.10;;
22449;SDS011;11392;57.390;-2.468;2023-02-11T13:55:44;0.00;;;0.00;;
22449;SDS011;11392;57.390;-2.468;2023-02-11T14:00:45;0.00;;;0.00;;
22449;SDS011;11392;57.390;-2.468;2023-02-11T14:11:42;0.45;;;0.10;;
22449;SDS011;11392;57.390;-2.468;2023-02-11T14:14:27;0.10;;;0.00;;
22449;SDS011;11392;57.390;-2.468;2023-02-11T14:19:30;0.00;;;0.00;;
22449;SDS011;11392;57.390;-2.468;2023-02-11T14:24:43;0.20;;;0.10;;
22449;SDS011;11392;57.390;-2.468;2023-02-11T14:35:56;0.05;;;0.00;;
22449;SDS011;11392;57.390;-2.468;2023-02-11T14:38:57;0.13;;;0.10;;
22449;SDS011;11392;57.390;-2.468;2023-02-11T14:41:39;2.40;;;0.10;;
22449;SDS011;11392;57.390;-2.468;2023-02-11T14:44:15;0.10;;;0.10;;
22449;SDS011;11392;57.390;-2.468;2023-02-11T14:46:46;0.10;;;0.10;;
22449;SDS011;11392;57.390;-2.468;2023-02-11T14:52:15;0.40;;;0.20;;
22449;SDS011;11392;57.390;-2.468;2023-02-11T14:54:47;0.32;;;0.10;;
22449;SDS011;11392;57.390;-2.468;2023-02-11T14:57:18;0.15;;;0.15;;
22449;SDS011;11392;57.390;-2.468;2023-02-11T14:59:53;0.25;;;0.10;;
22449;SDS011;11392;57.390;-2.468;2023-02-11T15:02:28;0.35;;;0.30;;
22449;SDS011;11392;57.390;-2.468;2023-02-11T15:07:46;0.95;;;0.50;;
22449;SDS011;11392;57.390;-2.468;2023-02-11T15:10:16;0.25;;;0.25;;
22449;SDS011;11392;57.390;-2.468;2023-02-11T15:12:47;1.25;;;0.40;;
22449;SDS011;11392;57.390;-2.468;2023-02-11T15:15:15;0.20;;;0.20;;
22449;SDS011;11392;57.390;-2.468;2023-02-11T15:17:42;0.52;;;0.30;;
22449;SDS011;11392;57.390;-2.468;2023-02-11T15:20:21;0.43;;;0.17;;
22449;SDS011;11392;57.390;-2.468;2023-02-11T15:22:53;0.95;;;0.20;;
22449;SDS011;11392;57.390;-2.468;2023-02-11T15:25:22;0.40;;;0.30;;
22449;SDS011;11392;57.390;-2.468;2023-02-11T15:27:51;0.35;;;0.35;;
22449;SDS011;11392;57.390;-2.468;2023-02-11T15:32:51;0.88;;;0.40;;
22449;SDS011;11392;57.390;-2.468;2023-02-11T15:35:30;1.38;;;1.10;;
22449;SDS011;11392;57.390;-2.468;2023-02-11T15:38:00;2.42;;;1.70;;
22449;SDS011;11392;57.390;-2.468;2023-02-11T15:40:28;1.30;;;1.00;;
22449;SDS011;11392;57.390;-2.468;2023-02-11T15:43:03;1.50;;;1.20;;
22449;SDS011;11392;57.390;-2.468;2023-02-11T15:45:43;0.77;;;0.60;;
22449;SDS011;11392;57.390;-2.468;2023-02-11T15:48:27;0.75;;;0.60;;
22449;SDS011;11392;57.390;-2.468;2023-02-11T15:51:01;1.80;;;1.20;;
22449;SDS011;11392;57.390;-2.468;2023-02-11T15:53:49;1.23;;;1.10;;
22449;SDS011;11392;57.390;-2.468;2023-02-11T15:56:23;1.55;;;0.68;;
22449;SDS011;11392;57.390;-2.468;2023-02-11T15:58:58;1.40;;;0.70;;
22449;SDS011;11392;57.390;-2.468;2023-02-11T16:01:35;0.68;;;0.40;;
22449;SDS011;11392;57.390;-2.468;2023-02-11T16:04:03;0.82;;;0.50;;
22449;SDS011;11392;57.390;-2.468;2023-02-11T16:06:35;1.92;;;0.43;;
22449;SDS011;11392;57.390;-2.468;2023-02-11T16:11:52;0.30;;;0.30;;
22449;SDS011;11392;57.390;-2.468;2023-02-11T16:19:47;1.08;;;0.30;;
22449;SDS011;11392;57.390;-2.468;2023-02-11T16:22:21;0.70;;;0.35;;
22449;SDS011;11392;57.390;-2.468;2023-02-11T16:24:54;0.17;;;0.17;;
22449;SDS011;11392;57.390;-2.468;2023-02-11T16:27:25;0.30;;;0.28;;
22449;SDS011;11392;57.390;-2.468;2023-02-11T16:29:56;0.52;;;0.20;;
22449;SDS011;11392;57.390;-2.468;2023-02-11T16:32:27;0.50;;;0.43;;
22449;SDS011;11392;57.390;-2.468;2023-02-11T16:34:55;0.47;;;0.38;;
22449;SDS011;11392;57.390;-2.468;2023-02-11T16:37:24;0.40;;;0.38;;
22449;SDS011;11392;57.390;-2.468;2023-02-11T16:39:55;0.73;;;0.30;;
22449;SDS011;11392;57.390;-2.468;2023-02-11T16:42:23;0.30;;;0.30;;
22449;SDS011;11392;57.390;-2.468;2023-02-11T16:44:50;3.25;;;0.50;;
22449;SDS011;11392;57.390;-2.468;2023-02-11T16:47:24;0.75;;;0.20;;
22449;SDS011;11392;57.390;-2.468;2023-02-11T16:49:53;1.13;;;0.30;;
22449;SDS011;11392;57.390;-2.468;2023-02-11T16:52:21;0.40;;;0.40;;
22449;SDS011;11392;57.390;-2.468;2023-02-11T16:54:48;0.43;;;0.30;;
22449;SDS011;11392;57.390;-2.468;2023-02-11T16:57:16;1.42;;;0.43;;
22449;SDS011;11392;57.390;-2.468;2023-02-11T16:59:46;1.17;;;0.40;;
22449;SDS011;11392;57.390;-2.468;2023-02-11T17:02:20;0.70;;;0.38;;
22449;SDS011;11392;57.390;-2.468;2023-02-11T17:04:51;1.38;;;0.30;;
22449;SDS011;11392;57.390;-2.468;2023-02-11T17:07:19;1.98;;;0.50;;
22449;SDS011;11392;57.390;-2.468;2023-02-11T17:09:46;0.85;;;0.30;;
22449;SDS011;11392;57.390;-2.468;2023-02-11T17:12:13;2.20;;;0.20;;
22449;SDS011;11392;57.390;-2.468;2023-02-11T17:14:40;0.55;;;0.55;;
22449;SDS011;11392;57.390;-2.468;2023-02-11T17:17:08;0.47;;;0.40;;
22449;SDS011;11392;57.390;-2.468;2023-02-11T17:19:36;0.60;;;0.38;;
22449;SDS011;11392;57.390;-2.468;2023-02-11T17:22:03;1.20;;;0.47;;
22449;SDS011;11392;57.390;-2.468;2023-02-11T17:24:30;0.35;;;0.32;;
22449;SDS011;11392;57.390;-2.468;2023-02-11T17:26:58;0.60;;;0.47;;
22449;SDS011;11392;57.390;-2.468;2023-02-11T17:29:25;0.50;;;0.50;;
22449;SDS011;11392;57.390;-2.468;2023-02-11T17:31:52;0.68;;;0.50;;
22449;SDS011;11392;57.390;-2.468;2023-02-11T17:34:20;0.68;;;0.45;;
22449;SDS011;11392;57.390;-2.468;2023-02-11T17:36:48;1.23;;;0.50;;
22449;SDS011;11392;57.390;-2.468;2023-02-11T17:39:15;0.73;;;0.50;;
22449;SDS011;11392;57.390;-2.468;2023-02-11T17:41:42;1.13;;;0.50;;
22449;SDS011;11392;57.390;-2.468;2023-02-11T17:44:09;0.63;;;0.43;;
22449;SDS011;11392;57.390;-2.468;2023-02-11T17:46:37;0.47;;;0.38;;
22449;SDS011;11392;57.390;-2.468;2023-02-11T17:49:04;0.60;;;0.60;;
22449;SDS011;11392;57.390;-2.468;2023-02-11T17:51:35;1.20;;;0.60;;
22449;SDS011;11392;57.390;-2.468;2023-02-11T17:54:04;0.90;;;0.45;;